Airfield :
LOGIN :

Register | Disclaimer

   EN    FR    IT 

 










Legend :    VFR   Marginal VFR   IFR   Intensive IFR   Very Intensive IFR
Visi :
Ceiling :
>= 8 km
>= 3000ft
5 to 8 km
1000 to 3000 ft
1500m to 5 km
500 to 1000 ft
800 to 1500m
200 to 500 ft
< 800m
< 200 ft
Symbols :   Thunderstorms  Fog  Heavy snow  Heavy precipitations  Wind > 20 kt
SIGMETs :     Misc.  Thunderstorms  Icing  Turbulence  Mountain Waves  Volcanic Ashes







- Airport Elevation : 19 ft
- IATA code : LCY
- Download approach charts


EGLC - London City

CURRENT METAR :
  • 150950Z AUTO 30010KT 9999 SCT015 04/01 Q0996

EXPIRED METARs :
  • 150920Z AUTO VRB06KT 9999 FEW013 SCT032 04/01 Q0995
  • 150850Z AUTO 30009KT 260V340 9999 -RA SCT012 SCT026 BKN031 04/02 Q0995
  • 150820Z AUTO 30006KT 270V350 9999 -RA FEW010/// BKN018/// BKN023/// //////TCU 03/02 Q0994
  • 150750Z AUTO VRB03KT 9999 BKN025/// //////TCU 03/01 Q0993
  • 150720Z AUTO 35008KT 300V030 9999 -RA BKN007/// BKN012/// OVC023/// //////TCU 04/02 Q0992 RESHRA RESN RERA

TAF AMD TAF EGLC
Valid from the 15 at 09:00 until the 15 at 18:00 UTC


150930Z 1509/1518 33009KT 9999 FEW012 SCT030
TEMPO 1509/1515 8000 -SHRA
PROB30
TEMPO 1509/1512 SHRA BKN012
PROB30
TEMPO 1510/1515 33015G25KT
ATIS : +44 20 7646 0224
No reported NOTAMs for that airfield.



MET'MAP, your aeronautical weather chart ! - Copyright ORBIFLY December 2007 - Disclaimer

ORBIFLY MET'MAP TEAM :

Programming & Development : Alexandra Zaïnal
Concept & Development : Baudouin d'Aumeries
Co-Development & Prog : Marc-Olivier Méhu
Technical & hardware support : Manuel Goepfert

Contact : metmap@orbifly.com




SOURCES & CREDITS :

   NOAA